Time;durP1;ratioP1;P1;durP2;ratioP2;P2;SDS_P1;SDS_P2;PMS_P1;PMS_P2;Temp;Humidity;BMP_temperature;BMP_pressure;BME280_temperature;BME280_humidity;BME280_pressure;Samples;Min_cycle;Max_cycle;Signal;HPM_P1;HPM_P2
2022/05/30 00:01:54;;;;;;;5.88;4.20;;;7.80;99.90;;;;;;5095152;28;20059;-73
2022/05/30 00:04:21;;;;;;;7.38;4.00;;;7.90;99.90;;;;;;5094388;28;20040;-72
2022/05/30 00:06:48;;;;;;;8.00;4.10;;;7.90;99.90;;;;;;5094290;28;20051;-73
2022/05/30 00:09:15;;;;;;;6.15;3.53;;;7.90;99.90;;;;;;5091811;28;20052;-74
2022/05/30 00:11:42;;;;;;;6.55;4.22;;;7.90;99.90;;;;;;5094141;28;20051;-74
2022/05/30 00:14:09;;;;;;;6.35;3.65;;;7.80;99.90;;;;;;5093945;28;20044;-73
2022/05/30 00:16:35;;;;;;;5.70;4.28;;;7.80;99.90;;;;;;5092960;28;20071;-73
2022/05/30 00:19:02;;;;;;;5.20;3.30;;;7.70;99.90;;;;;;5093755;28;20036;-73
2022/05/30 00:21:29;;;;;;;6.00;4.25;;;7.70;99.90;;;;;;5094036;28;20051;-73
2022/05/30 00:23:56;;;;;;;5.53;3.90;;;7.70;99.90;;;;;;5092456;28;20047;-73
2022/05/30 00:26:23;;;;;;;7.40;3.83;;;7.60;99.90;;;;;;5092451;28;20387;-72
2022/05/30 00:28:50;;;;;;;8.13;3.80;;;7.60;99.90;;;;;;5092757;28;20039;-71
2022/05/30 00:31:18;;;;;;;9.38;4.57;;;7.50;99.90;;;;;;5092591;28;20050;-71
2022/05/30 00:33:45;;;;;;;4.78;3.40;;;7.60;99.90;;;;;;5075753;28;20123;-72
2022/05/30 00:36:12;;;;;;;6.30;3.42;;;7.50;99.90;;;;;;5076695;28;20187;-72
2022/05/30 00:38:39;;;;;;;6.85;4.25;;;7.50;99.90;;;;;;5094243;28;20081;-72
2022/05/30 00:41:06;;;;;;;5.25;3.33;;;7.50;99.90;;;;;;5093411;28;20044;-71
2022/05/30 00:43:35;;;;;;;6.80;3.15;;;7.50;99.90;;;;;;5093709;28;20063;-72
2022/05/30 00:46:03;;;;;;;6.53;3.75;;;7.50;99.90;;;;;;5075770;28;20056;-71
2022/05/30 00:48:40;;;;;;;6.93;3.80;;;7.50;99.90;;;;;;5093655;28;20040;-72
2022/05/30 00:51:10;;;;;;;6.57;3.78;;;7.40;99.90;;;;;;5076097;28;20036;-72
2022/05/30 00:53:38;;;;;;;5.57;3.53;;;7.40;99.90;;;;;;5092131;28;20050;-72
2022/05/30 00:56:05;;;;;;;5.50;3.55;;;7.40;99.90;;;;;;5092415;28;20387;-72
2022/05/30 00:58:33;;;;;;;6.72;3.65;;;7.40;99.90;;;;;;5092002;28;20040;-73
2022/05/30 01:01:00;;;;;;;4.75;3.00;;;7.30;99.90;;;;;;5075563;28;20522;-73
2022/05/30 01:06:33;;;;;;;4.45;3.20;;;7.30;99.90;;;;;;5093115;28;20044;-72
2022/05/30 01:09:07;;;;;;;3.95;2.50;;;7.40;99.90;;;;;;5092789;28;20453;-72
2022/05/30 01:11:50;;;;;;;4.95;3.35;;;7.40;99.90;;;;;;5091940;28;20058;-72
2022/05/30 01:14:18;;;;;;;5.55;2.90;;;7.40;99.90;;;;;;5092715;28;20119;-72
2022/05/30 01:16:44;;;;;;;6.28;3.42;;;7.40;99.90;;;;;;5092199;28;20044;-72
2022/05/30 01:19:21;;;;;;;7.60;2.85;;;7.50;99.90;;;;;;5075194;28;20040;-72
2022/05/30 01:22:13;;;;;;;4.63;3.42;;;7.50;99.90;;;;;;5095925;28;20398;-73
2022/05/30 01:24:43;;;;;;;5.97;3.40;;;7.60;99.90;;;;;;5081403;28;20047;-72
2022/05/30 01:27:16;;;;;;;;;;;7.60;99.90;;;;;;5097756;28;20040;-73
2022/05/30 01:29:45;;;;;;;7.38;3.38;;;7.70;99.90;;;;;;5097009;28;20377;-72
2022/05/30 01:32:20;;;;;;;4.03;2.55;;;7.70;99.90;;;;;;5097171;28;20123;-73
2022/05/30 01:34:47;;;;;;;6.13;2.90;;;7.70;99.90;;;;;;5095704;28;20612;-72
2022/05/30 01:37:14;;;;;;;8.30;3.45;;;7.70;99.90;;;;;;5096516;28;20040;-72
2022/05/30 01:39:41;;;;;;;7.25;3.08;;;7.70;99.90;;;;;;5096810;28;20052;-72
2022/05/30 01:42:08;;;;;;;6.28;2.92;;;7.70;99.90;;;;;;5097070;28;20054;-73
2022/05/30 01:44:36;;;;;;;7.47;3.70;;;7.60;99.90;;;;;;5096722;28;20040;-72
2022/05/30 01:47:03;;;;;;;5.40;3.22;;;7.60;99.90;;;;;;5096337;28;20051;-72
2022/05/30 01:49:30;;;;;;;4.70;3.20;;;7.60;99.90;;;;;;5097625;28;20425;-73
2022/05/30 01:51:57;;;;;;;7.25;4.28;;;7.50;99.90;;;;;;5095606;28;20063;-73
2022/05/30 01:54:24;;;;;;;4.82;4.00;;;7.50;99.90;;;;;;5095307;28;20047;-73
2022/05/30 01:56:51;;;;;;;5.65;4.00;;;7.40;99.90;;;;;;5096073;28;20044;-72
2022/05/30 01:59:18;;;;;;;5.43;3.90;;;7.40;99.90;;;;;;5095554;28;20467;-77
2022/05/30 02:01:45;;;;;;;6.53;3.55;;;7.30;99.90;;;;;;5095176;28;20467;-73
2022/05/30 02:04:13;;;;;;;6.97;4.15;;;7.30;99.90;;;;;;5095124;28;20093;-73
2022/05/30 02:06:40;;;;;;;5.93;4.10;;;7.30;99.90;;;;;;5062061;28;20046;-73
2022/05/30 02:09:07;;;;;;;4.10;2.85;;;7.20;99.90;;;;;;5097074;28;20040;-73
2022/05/30 02:11:34;;;;;;;4.65;2.97;;;7.20;99.90;;;;;;5095740;28;20043;-72
2022/05/30 02:14:01;;;;;;;7.45;3.60;;;7.10;99.90;;;;;;5078214;28;20476;-72
2022/05/30 02:19:34;;;;;;;6.85;3.17;;;7.00;99.90;;;;;;5071968;28;20046;-72
2022/05/30 02:22:01;;;;;;;5.22;2.78;;;7.00;99.90;;;;;;5094792;28;20052;-73
2022/05/30 02:24:28;;;;;;;5.90;3.00;;;6.90;99.90;;;;;;5094702;28;20395;-72
2022/05/30 02:26:55;;;;;;;6.07;3.70;;;6.90;99.90;;;;;;5095574;28;20055;-72
2022/05/30 02:29:22;;;;;;;3.58;2.40;;;6.80;99.90;;;;;;5096163;28;20047;-72
2022/05/30 02:31:49;;;;;;;5.45;3.33;;;6.80;99.90;;;;;;5093452;28;20490;-72
2022/05/30 02:37:01;;;;;;;3.78;2.53;;;6.70;99.90;;;;;;5096806;28;20055;-72
2022/05/30 02:39:28;;;;;;;3.15;2.30;;;6.70;99.90;;;;;;5095926;28;20044;-72
2022/05/30 02:41:55;;;;;;;7.18;3.92;;;6.60;99.90;;;;;;5096423;28;20050;-71
2022/05/30 02:44:23;;;;;;;8.07;3.10;;;6.60;99.90;;;;;;5094343;28;20042;-71
2022/05/30 02:46:52;;;;;;;4.45;2.78;;;6.60;99.90;;;;;;5094362;28;20399;-71
2022/05/30 02:49:20;;;;;;;5.65;2.10;;;6.60;99.90;;;;;;5078679;28;20036;-71
2022/05/30 02:51:47;;;;;;;6.57;2.58;;;6.60;99.90;;;;;;5078475;28;20317;-72
2022/05/30 02:54:14;;;;;;;6.10;3.47;;;6.60;99.90;;;;;;5094912;28;20455;-72
2022/05/30 02:56:41;;;;;;;6.85;2.65;;;6.60;99.90;;;;;;5077409;28;20123;-72
2022/05/30 02:59:08;;;;;;;3.13;2.03;;;6.70;99.90;;;;;;5095155;28;20044;-73
2022/05/30 03:01:35;;;;;;;5.05;2.10;;;6.70;99.90;;;;;;5095506;28;20044;-73
2022/05/30 03:04:02;;;;;;;3.20;2.20;;;6.80;99.90;;;;;;5094284;28;20066;-72
2022/05/30 03:06:29;;;;;;;4.93;2.50;;;6.80;99.90;;;;;;5093875;28;20476;-72
2022/05/30 03:08:58;;;;;;;3.75;2.30;;;6.80;99.90;;;;;;5095349;28;20046;-72
2022/05/30 03:11:26;;;;;;;4.68;2.50;;;6.80;99.90;;;;;;5077741;28;20047;-72
2022/05/30 03:13:53;;;;;;;3.92;2.22;;;6.80;99.90;;;;;;5093762;28;20044;-71
2022/05/30 03:16:19;;;;;;;4.43;2.58;;;6.90;99.90;;;;;;5094806;28;20097;-72
2022/05/30 03:18:47;;;;;;;3.25;2.05;;;6.90;99.90;;;;;;5077328;28;20097;-72
2022/05/30 03:21:14;;;;;;;3.55;2.25;;;6.90;99.90;;;;;;5095093;28;20055;-72
2022/05/30 03:23:41;;;;;;;4.05;2.17;;;7.00;99.90;;;;;;5076878;28;20044;-72
2022/05/30 03:26:08;;;;;;;6.13;3.00;;;7.00;99.90;;;;;;5093514;28;20044;-72
2022/05/30 03:28:35;;;;;;;3.45;2.15;;;7.00;99.90;;;;;;5094281;28;20066;-72
2022/05/30 03:31:02;;;;;;;3.75;2.08;;;7.00;99.90;;;;;;5094955;28;20382;-72
2022/05/30 03:33:29;;;;;;;4.63;2.15;;;7.00;99.90;;;;;;5095293;28;20044;-72
2022/05/30 03:35:56;;;;;;;4.75;2.28;;;7.00;99.90;;;;;;5093707;28;20066;-72
2022/05/30 03:38:23;;;;;;;3.95;1.85;;;7.00;99.90;;;;;;5093626;28;20039;-72
2022/05/30 03:40:50;;;;;;;5.15;2.15;;;6.90;99.90;;;;;;5093967;28;20455;-72
2022/05/30 03:43:17;;;;;;;5.68;2.85;;;6.90;99.90;;;;;;5094260;28;20052;-72
2022/05/30 03:45:44;;;;;;;7.40;2.38;;;6.80;99.90;;;;;;5094463;28;20048;-72
2022/05/30 03:48:13;;;;;;;5.45;2.40;;;6.80;99.90;;;;;;5093102;28;20059;-72
2022/05/30 03:50:39;;;;;;;4.65;2.42;;;6.70;99.90;;;;;;5077501;28;20067;-73
2022/05/30 03:53:06;;;;;;;3.30;2.03;;;6.70;99.90;;;;;;5094028;28;20048;-73
2022/05/30 03:55:39;;;;;;;5.47;2.30;;;6.60;99.90;;;;;;5092946;28;20490;-72
2022/05/30 03:58:07;;;;;;;3.63;2.25;;;6.60;99.90;;;;;;5076934;28;20054;-72
2022/05/30 04:00:34;;;;;;;3.08;2.10;;;6.60;99.90;;;;;;5092843;28;20126;-73
2022/05/30 04:03:01;;;;;;;4.43;2.33;;;6.50;99.90;;;;;;5093658;28;20048;-72
2022/05/30 04:05:28;;;;;;;3.80;2.42;;;6.50;99.90;;;;;;5095020;28;20083;-72
2022/05/30 04:07:55;;;;;;;3.70;2.40;;;6.50;99.90;;;;;;5093288;28;20486;-72
2022/05/30 04:10:22;;;;;;;3.03;2.10;;;6.40;99.90;;;;;;5076220;28;20047;-72
2022/05/30 04:12:49;;;;;;;5.82;2.80;;;6.50;99.90;;;;;;5094364;28;20406;-72
2022/05/30 04:15:22;;;;;;;5.32;2.40;;;6.40;99.90;;;;;;5093121;28;20047;-72
2022/05/30 04:17:49;;;;;;;4.40;2.33;;;6.40;99.90;;;;;;5092811;28;20048;-72
2022/05/30 04:20:16;;;;;;;5.15;2.45;;;6.40;99.90;;;;;;5093647;28;20044;-72
2022/05/30 04:22:46;;;;;;;3.85;2.13;;;6.40;99.90;;;;;;5092838;28;20054;-72
2022/05/30 04:25:13;;;;;;;4.38;2.10;;;6.40;99.90;;;;;;5093074;28;20190;-72
2022/05/30 04:27:40;;;;;;;3.88;2.20;;;6.40;99.90;;;;;;5092400;28;20040;-72
2022/05/30 04:30:07;;;;;;;3.53;2.33;;;6.40;99.90;;;;;;5076786;28;20050;-72
2022/05/30 04:32:36;;;;;;;4.63;2.42;;;6.40;99.90;;;;;;5075661;28;20040;-73
2022/05/30 04:35:04;;;;;;;4.30;3.03;;;6.50;99.90;;;;;;5076966;28;20378;-73
2022/05/30 04:37:31;;;;;;;4.50;2.60;;;6.50;99.90;;;;;;5092577;28;20044;-72
2022/05/30 04:39:58;;;;;;;4.00;2.40;;;6.50;99.90;;;;;;5093106;28;20036;-72
2022/05/30 04:42:25;;;;;;;5.25;2.45;;;6.60;99.90;;;;;;5094604;28;20048;-73
2022/05/30 04:44:52;;;;;;;4.40;2.90;;;6.60;99.90;;;;;;5093424;28;20055;-73
2022/05/30 04:47:19;;;;;;;4.80;2.20;;;6.60;99.90;;;;;;5092253;28;20047;-73
2022/05/30 04:49:47;;;;;;;4.10;2.70;;;6.70;99.90;;;;;;5092107;28;20040;-73
2022/05/30 04:52:15;;;;;;;3.35;2.50;;;6.90;99.90;;;;;;5091986;28;20047;-73
2022/05/30 04:54:42;;;;;;;3.53;2.70;;;7.30;99.90;;;;;;5092925;28;20076;-73
2022/05/30 04:57:09;;;;;;;5.80;3.83;;;7.60;99.90;;;;;;5092309;28;20047;-73
2022/05/30 04:59:39;;;;;;;5.72;3.00;;;7.90;99.90;;;;;;5092395;28;20052;-73
2022/05/30 05:02:06;;;;;;;4.75;3.55;;;8.30;99.90;;;;;;5093114;28;20036;-73
2022/05/30 05:04:33;;;;;;;5.38;3.28;;;9.00;99.90;;;;;;5092025;28;20040;-73
2022/05/30 05:07:02;;;;;;;5.00;3.38;;;9.40;99.90;;;;;;5092289;28;20040;-73
2022/05/30 05:09:35;;;;;;;4.90;3.35;;;9.70;99.90;;;;;;5091951;28;20050;-73
2022/05/30 05:12:02;;;;;;;5.53;2.95;;;10.30;99.90;;;;;;5093923;28;20076;-72
2022/05/30 05:14:29;;;;;;;6.47;3.33;;;10.90;99.90;;;;;;5093919;28;20044;-73
2022/05/30 05:16:56;;;;;;;3.97;2.60;;;11.40;99.90;;;;;;5093069;28;20051;-73
2022/05/30 05:19:23;;;;;;;4.07;2.75;;;11.40;99.90;;;;;;5076066;28;20041;-73
2022/05/30 05:21:50;;;;;;;5.15;3.10;;;11.50;99.90;;;;;;5075167;28;20044;-73
2022/05/30 05:24:17;;;;;;;5.00;2.65;;;11.90;99.90;;;;;;5093040;28;20059;-72
2022/05/30 05:26:48;;;;;;;4.65;3.28;;;12.10;99.90;;;;;;5091831;28;20052;-73
2022/05/30 05:29:15;;;;;;;5.85;3.45;;;12.30;99.90;;;;;;5075120;28;20047;-73
2022/05/30 05:31:43;;;;;;;5.80;3.22;;;12.60;99.90;;;;;;5094072;28;20333;-73
2022/05/30 05:34:11;;;;;;;4.00;2.40;;;13.00;99.90;;;;;;5092845;28;20040;-73
2022/05/30 05:36:39;;;;;;;5.85;2.47;;;13.30;99.90;;;;;;5091752;28;20048;-73
2022/05/30 05:39:06;;;;;;;7.57;2.30;;;13.50;99.90;;;;;;5075472;28;20051;-72
2022/05/30 05:41:33;;;;;;;5.47;2.30;;;13.70;99.90;;;;;;5091651;28;20043;-73
2022/05/30 05:44:00;;;;;;;6.07;2.63;;;13.60;99.90;;;;;;5093216;28;20040;-73
2022/05/30 05:46:29;;;;;;;5.90;3.00;;;13.50;99.90;;;;;;5074656;28;20064;-73
2022/05/30 05:48:56;;;;;;;8.48;2.50;;;13.30;99.90;;;;;;5075110;28;20123;-73
2022/05/30 05:51:23;;;;;;;6.65;2.75;;;13.10;99.90;;;;;;5075244;28;20051;-73
2022/05/30 05:53:50;;;;;;;4.40;1.98;;;13.10;99.90;;;;;;5091699;28;20466;-73
2022/05/30 05:56:18;;;;;;;6.00;2.65;;;13.20;99.90;;;;;;5092631;28;20044;-73
2022/05/30 05:58:46;;;;;;;7.05;2.20;;;13.40;99.90;;;;;;5092619;28;20040;-73
2022/05/30 06:01:18;;;;;;;4.93;2.42;;;13.50;99.90;;;;;;5092507;28;20126;-73
2022/05/30 06:03:45;;;;;;;5.03;2.33;;;13.50;99.90;;;;;;5075108;28;20048;-73
2022/05/30 06:06:12;;;;;;;4.55;2.10;;;13.50;99.90;;;;;;5093312;28;20474;-73
2022/05/30 06:08:39;;;;;;;5.57;1.80;;;13.50;99.90;;;;;;5095563;28;20054;-73
2022/05/30 06:11:08;;;;;;;5.70;2.22;;;13.50;99.90;;;;;;5097270;28;20047;-70
2022/05/30 06:13:36;;;;;;;9.70;7.22;;;13.60;99.90;;;;;;5096350;28;20040;-75
2022/05/30 06:16:07;;;;;;;617.13;356.45;;;13.60;99.90;;;;;;5078393;28;20051;-72
2022/05/30 06:18:35;;;;;;;98.68;88.38;;;13.70;99.90;;;;;;5095690;28;20127;-72
2022/05/30 06:21:02;;;;;;;42.38;37.58;;;13.70;99.90;;;;;;5078189;28;20044;-70
2022/05/30 06:23:29;;;;;;;15.00;10.95;;;13.90;99.90;;;;;;5096774;28;20040;-71
2022/05/30 06:25:56;;;;;;;9.85;6.35;;;13.90;99.90;;;;;;5095561;28;20048;-69
2022/05/30 06:28:22;;;;;;;5.63;2.97;;;14.00;99.90;;;;;;5095878;28;20044;-69
2022/05/30 06:30:49;;;;;;;4.47;2.08;;;14.10;99.90;;;;;;5096676;28;20046;-67
2022/05/30 06:33:16;;;;;;;11.73;6.63;;;14.20;99.90;;;;;;5078647;28;20047;-67
2022/05/30 06:35:44;;;;;;;7.20;3.20;;;14.40;99.90;;;;;;5096314;28;20502;-68
2022/05/30 06:38:12;;;;;;;3.38;1.88;;;14.50;99.90;;;;;;5096435;28;20066;-69
2022/05/30 06:40:39;;;;;;;3.67;1.60;;;14.80;99.90;;;;;;5077764;28;20082;-69
2022/05/30 06:43:06;;;;;;;6.40;1.50;;;14.90;99.90;;;;;;5095628;28;20056;-76
2022/05/30 06:45:33;;;;;;;3.38;1.70;;;15.00;99.90;;;;;;5101900;28;20051;-86
2022/05/30 06:48:00;;;;;;;6.60;2.38;;;15.10;99.90;;;;;;5099735;28;20044;-84
2022/05/30 06:50:27;;;;;;;5.80;1.52;;;15.10;99.90;;;;;;5095724;28;20123;-75
2022/05/30 06:52:54;;;;;;;3.97;1.42;;;15.20;99.90;;;;;;5077437;28;20098;-74
2022/05/30 06:55:21;;;;;;;2.75;1.30;;;15.20;99.90;;;;;;5094491;28;20051;-73
2022/05/30 07:00:33;;;;;;;4.90;1.30;;;15.40;99.90;;;;;;5094646;28;20479;-68
2022/05/30 07:03:00;;;;;;;2.15;1.00;;;15.30;99.90;;;;;;5094034;28;20054;-67
2022/05/30 07:05:27;;;;;;;2.67;1.05;;;15.30;99.90;;;;;;5094050;28;20050;-68
2022/05/30 07:07:56;;;;;;;7.18;2.10;;;15.30;99.90;;;;;;5094848;28;20044;-67
2022/05/30 07:10:24;;;;;;;21.70;11.32;;;15.20;99.90;;;;;;5095126;28;20489;-66
2022/05/30 07:12:51;;;;;;;70.55;60.97;;;15.20;99.90;;;;;;5093826;28;20478;-67
2022/05/30 07:15:18;;;;;;;13.57;7.57;;;15.20;99.90;;;;;;5094119;28;20206;-67
2022/05/30 07:17:51;;;;;;;4.10;2.63;;;15.20;99.90;;;;;;5094438;28;20079;-69
2022/05/30 07:20:18;;;;;;;4.93;1.70;;;15.20;99.90;;;;;;5096031;28;20056;-67
2022/05/30 07:22:45;;;;;;;4.97;1.73;;;15.20;99.90;;;;;;5093645;28;20051;-67
2022/05/30 07:25:12;;;;;;;3.78;1.75;;;15.20;99.60;;;;;;5093912;28;20044;-67
2022/05/30 07:27:39;;;;;;;3.88;1.20;;;15.20;99.90;;;;;;5094950;28;20044;-68
2022/05/30 07:30:06;;;;;;;3.83;1.10;;;15.30;99.90;;;;;;5093419;28;20048;-69
2022/05/30 07:32:33;;;;;;;3.20;1.35;;;15.50;99.90;;;;;;5077032;28;20044;-67
2022/05/30 07:35:00;;;;;;;3.35;0.98;;;15.60;99.90;;;;;;5093380;28;20471;-66
2022/05/30 07:37:27;;;;;;;3.95;1.25;;;15.70;99.90;;;;;;5093641;28;20040;-66
2022/05/30 07:39:54;;;;;;;3.17;1.50;;;15.70;98.50;;;;;;5093340;28;20127;-65
2022/05/30 07:42:21;;;;;;;5.07;2.83;;;15.70;97.90;;;;;;5094751;28;20047;-65
2022/05/30 07:44:48;;;;;;;43.60;36.70;;;15.70;97.40;;;;;;5095447;28;20051;-65
2022/05/30 07:47:17;;;;;;;6.60;3.33;;;15.60;98.90;;;;;;5094295;28;20055;-65
2022/05/30 07:49:44;;;;;;;3.63;1.83;;;15.60;99.00;;;;;;5093119;28;20043;-64
2022/05/30 07:52:11;;;;;;;3.03;1.42;;;15.60;99.10;;;;;;5093393;28;20444;-65
2022/05/30 07:54:38;;;;;;;5.38;1.35;;;15.60;97.90;;;;;;5095294;28;20047;-66
2022/05/30 07:57:06;;;;;;;1.85;1.08;;;15.60;98.30;;;;;;5093393;28;20397;-65
2022/05/30 07:59:35;;;;;;;4.00;1.33;;;15.40;98.40;;;;;;5094449;28;20052;-66
2022/05/30 08:02:03;;;;;;;3.13;1.38;;;15.30;99.10;;;;;;5094056;28;20341;-64
2022/05/30 08:04:30;;;;;;;3.22;1.30;;;15.20;98.10;;;;;;5076318;28;20051;-63
2022/05/30 08:06:57;;;;;;;5.25;1.23;;;15.20;98.90;;;;;;5092853;28;20059;-66
2022/05/30 08:09:24;;;;;;;2.88;1.30;;;15.10;99.90;;;;;;5093150;28;20040;-65
2022/05/30 08:11:51;;;;;;;4.90;1.33;;;15.10;99.30;;;;;;5093080;28;20039;-66
2022/05/30 08:14:19;;;;;;;3.88;1.58;;;15.10;98.80;;;;;;5093824;28;20047;-69
2022/05/30 08:16:46;;;;;;;2.83;1.00;;;15.10;99.80;;;;;;5093823;28;20036;-67
2022/05/30 08:19:16;;;;;;;7.00;1.13;;;15.10;99.40;;;;;;5093578;28;20071;-67
2022/05/30 08:22:08;;;;;;;4.35;1.10;;;15.10;99.60;;;;;;5079090;28;20043;-67
2022/05/30 08:24:36;;;;;;;3.53;1.13;;;15.00;99.10;;;;;;5076829;28;20051;-67
2022/05/30 08:27:03;;;;;;;6.88;1.50;;;14.90;99.70;;;;;;5093735;28;20040;-68
2022/05/30 08:29:30;;;;;;;4.78;1.30;;;14.80;99.90;;;;;;5092928;28;20042;-67
2022/05/30 08:31:57;;;;;;;2.50;1.15;;;14.80;99.90;;;;;;5092397;28;20051;-67
2022/05/30 08:34:24;;;;;;;3.45;1.35;;;14.70;99.90;;;;;;5092722;28;20040;-68
2022/05/30 08:36:52;;;;;;;3.95;1.38;;;14.70;99.90;;;;;;5093609;28;20044;-68
2022/05/30 08:42:07;;;;;;;6.05;2.38;;;14.80;99.90;;;;;;5093068;28;20383;-67
2022/05/30 08:44:34;;;;;;;2.28;1.05;;;14.90;99.90;;;;;;5076364;28;20202;-66
2022/05/30 08:47:06;;;;;;;295.77;228.55;;;14.80;99.90;;;;;;5094041;28;20059;-66
2022/05/30 08:49:50;;;;;;;15.80;10.73;;;14.90;99.90;;;;;;5092353;28;20040;-64
2022/05/30 08:52:28;;;;;;;9.65;5.18;;;15.00;99.90;;;;;;5093395;28;20044;-66
2022/05/30 08:54:55;;;;;;;32.63;3.35;;;15.00;99.60;;;;;;5060464;28;20040;-65
2022/05/30 08:57:25;;;;;;;4.18;1.42;;;15.00;98.40;;;;;;5094166;28;20036;-65
2022/05/30 09:00:07;;;;;;;6.20;1.58;;;15.10;98.70;;;;;;5093210;28;20047;-63
2022/05/30 09:02:42;;;;;;;3.10;1.33;;;15.00;97.70;;;;;;5093163;28;20078;-67
2022/05/30 09:05:30;;;;;;;2.90;1.77;;;15.00;96.80;;;;;;5094079;28;20051;-69
2022/05/30 09:08:26;;;;;;;5.50;1.35;;;14.90;97.40;;;;;;5093906;28;20041;-71
2022/05/30 09:11:06;;;;;;;5.15;1.02;;;14.90;98.40;;;;;;5093179;28;20036;-68
2022/05/30 09:13:42;;;;;;;2.63;1.40;;;14.90;99.00;;;;;;5060825;28;20044;-68
2022/05/30 09:16:09;;;;;;;4.20;1.75;;;15.00;97.50;;;;;;5093059;28;20065;-67
2022/05/30 09:18:51;;;;;;;4.95;1.17;;;15.10;99.20;;;;;;5093162;28;20043;-67
2022/05/30 09:21:27;;;;;;;2.78;1.27;;;15.20;98.20;;;;;;5093576;28;20163;-67
2022/05/30 09:23:54;;;;;;;2.53;1.20;;;15.30;97.70;;;;;;5092747;28;20051;-66
2022/05/30 09:26:35;;;;;;;2.83;1.13;;;15.40;97.10;;;;;;5092646;28;20044;-68
2022/05/30 09:29:04;;;;;;;5.38;1.38;;;15.50;95.90;;;;;;5076970;28;20068;-70
2022/05/30 09:31:47;;;;;;;4.97;1.45;;;15.50;94.20;;;;;;5059738;28;20135;-68
2022/05/30 09:34:45;;;;;;;2.50;1.30;;;15.60;93.60;;;;;;5076766;28;20109;-68
2022/05/30 09:37:29;;;;;;;5.35;2.08;;;15.80;95.00;;;;;;5093027;28;20044;-69
2022/05/30 09:39:57;;;;;;;450.95;390.45;;;15.90;94.00;;;;;;5092407;28;20040;-63
2022/05/30 09:42:33;;;;;;;45.28;39.50;;;16.10;93.60;;;;;;5095766;28;20047;-64
2022/05/30 09:45:15;;;;;;;18.38;15.50;;;16.20;92.00;;;;;;5097390;28;20040;-69
2022/05/30 09:48:02;;;;;;;7.93;5.90;;;16.30;92.20;;;;;;5095545;28;20050;-68
2022/05/30 09:50:29;;;;;;;4.60;2.28;;;16.40;91.80;;;;;;5096286;28;20066;-60
2022/05/30 09:52:56;;;;;;;6.35;2.40;;;16.30;92.20;;;;;;5097721;28;20337;-59
2022/05/30 09:55:47;;;;;;;11.77;2.47;;;16.30;92.00;;;;;;5078888;28;20044;-59
2022/05/30 09:58:14;;;;;;;4.32;1.85;;;16.20;90.70;;;;;;5093850;28;20063;-63
2022/05/30 10:00:53;;;;;;;10.23;2.17;;;16.30;91.90;;;;;;5062057;28;20399;-64
2022/05/30 10:03:26;;;;;;;2.78;1.30;;;16.30;92.40;;;;;;5096434;28;20483;-68
2022/05/30 10:05:53;;;;;;;5.32;1.85;;;16.40;91.00;;;;;;5078476;28;20075;-68
2022/05/30 10:08:24;;;;;;;4.82;1.83;;;16.50;90.80;;;;;;5062685;28;20052;-68
2022/05/30 10:10:52;;;;;;;7.13;2.05;;;16.70;90.90;;;;;;5096264;28;20471;-68
2022/05/30 10:13:42;;;;;;;2.83;1.50;;;16.80;89.70;;;;;;5094954;28;20538;-67
2022/05/30 10:16:13;;;;;;;4.07;1.48;;;16.80;86.10;;;;;;5078391;28;20063;-68
2022/05/30 10:18:52;;;;;;;4.45;1.70;;;16.90;87.90;;;;;;5079777;28;20043;-69
2022/05/30 10:21:28;;;;;;;3.35;1.55;;;17.00;84.50;;;;;;5062817;28;20135;-68
2022/05/30 10:30:11;;;;;;;4.18;2.40;;;17.30;81.20;;;;;;5097127;28;20044;-66
2022/05/30 10:33:06;;;;;;;2.75;1.58;;;17.60;81.00;;;;;;5096791;28;20098;-66
2022/05/30 10:35:40;;;;;;;2.83;1.35;;;17.80;84.10;;;;;;5095764;28;20097;-67
2022/05/30 10:38:34;;;;;;;5.50;1.45;;;18.00;84.30;;;;;;5096958;28;20062;-70
2022/05/30 10:41:04;;;;;;;2.78;1.55;;;18.00;82.20;;;;;;5096662;28;20054;-65
2022/05/30 10:43:40;;;;;;;4.45;1.52;;;18.00;80.90;;;;;;5094802;28;20044;-69
2022/05/30 10:46:15;;;;;;;3.22;1.27;;;18.00;79.60;;;;;;5095016;28;20063;-65
2022/05/30 10:48:54;;;;;;;3.65;1.85;;;18.20;78.20;;;;;;5094470;28;20044;-67
2022/05/30 10:51:28;;;;;;;2.75;1.50;;;18.10;75.60;;;;;;5095300;28;20040;-68
2022/05/30 10:54:00;;;;;;;4.22;1.27;;;18.20;78.80;;;;;;5078024;28;20040;-66
2022/05/30 10:56:28;;;;;;;2.75;1.40;;;18.40;78.00;;;;;;5095220;28;20046;-68
2022/05/30 10:58:55;;;;;;;3.28;1.13;;;18.60;76.20;;;;;;5078606;28;20477;-72
2022/05/30 11:01:29;;;;;;;3.08;1.05;;;18.70;74.90;;;;;;5094499;28;20055;-70
2022/05/30 11:04:22;;;;;;;3.47;1.10;;;18.60;72.60;;;;;;5077995;28;20083;-67
2022/05/30 11:06:49;;;;;;;3.08;1.88;;;18.60;72.30;;;;;;5094109;28;20471;-66
2022/05/30 11:09:30;;;;;;;5.22;1.65;;;18.40;74.60;;;;;;5095161;28;20040;-68
2022/05/30 11:12:00;;;;;;;2.28;1.20;;;18.20;71.90;;;;;;5077375;28;20050;-69
2022/05/30 11:14:42;;;;;;;4.43;1.30;;;18.10;72.20;;;;;;5093804;28;20047;-69
2022/05/30 11:17:42;;;;;;;2.83;1.42;;;18.00;72.50;;;;;;5061259;28;20058;-69
2022/05/30 11:20:15;;;;;;;3.83;1.30;;;18.00;72.50;;;;;;5093882;28;20036;-69
2022/05/30 11:22:52;;;;;;;1.80;1.20;;;18.10;74.80;;;;;;5077242;28;20050;-69
2022/05/30 11:25:42;;;;;;;9.10;4.32;;;18.30;72.60;;;;;;5078509;28;20415;-69
2022/05/30 11:28:27;;;;;;;129.60;111.93;;;18.50;72.50;;;;;;5095131;28;20051;-69
2022/05/30 11:31:20;;;;;;;8.45;7.55;;;18.70;70.90;;;;;;5095327;28;20137;-71
2022/05/30 11:34:08;;;;;;;5.60;3.58;;;19.00;69.00;;;;;;5095462;28;20040;-71
2022/05/30 11:36:48;;;;;;;4.18;2.17;;;19.00;68.00;;;;;;5093540;28;20050;-71
2022/05/30 11:39:36;;;;;;;4.15;1.60;;;18.90;69.50;;;;;;5094477;28;20044;-71
2022/05/30 11:42:15;;;;;;;3.00;1.40;;;18.70;68.40;;;;;;5094692;28;20050;-69
2022/05/30 11:44:45;;;;;;;2.17;1.20;;;18.40;69.40;;;;;;5094558;28;20047;-71
2022/05/30 11:47:32;;;;;;;3.72;1.17;;;18.00;70.20;;;;;;5060009;28;20483;-72
2022/05/30 11:50:34;;;;;;;3.92;1.30;;;17.70;70.90;;;;;;5083283;28;20059;-71
2022/05/30 11:53:29;;;;;;;2.30;1.20;;;17.30;71.80;;;;;;5093494;28;20040;-74
2022/05/30 11:55:59;;;;;;;2.63;1.10;;;17.10;74.10;;;;;;5094277;28;20483;-71
2022/05/30 11:59:04;;;;;;;2.25;1.30;;;16.90;75.40;;;;;;5095183;28;20071;-72
2022/05/30 12:01:31;;;;;;;1.73;1.00;;;16.70;75.20;;;;;;5075758;28;20053;-72
2022/05/30 12:04:25;;;;;;;3.42;1.17;;;16.70;75.40;;;;;;5076429;28;20048;-68
2022/05/30 12:07:08;;;;;;;5.53;3.92;;;16.70;75.50;;;;;;5093518;28;20044;-70
2022/05/30 12:09:56;;;;;;;5.78;2.95;;;16.70;76.90;;;;;;5094394;28;20391;-69
2022/05/30 12:12:31;;;;;;;4.23;1.73;;;16.70;75.60;;;;;;5094394;28;20391;-69
2022/05/30 12:15:23;;;;;;;4.28;1.25;;;16.60;76.30;;;;;;5093655;28;20040;-73
2022/05/30 12:24:12;;;;;;;4.85;1.65;;;15.80;87.70;;;;;;5094613;28;20426;-72
2022/05/30 12:26:56;;;;;;;2.70;1.60;;;15.70;90.30;;;;;;5094056;28;20050;-70
2022/05/30 12:29:42;;;;;;;3.47;1.30;;;15.70;91.10;;;;;;5094552;28;20040;-73
2022/05/30 12:32:21;;;;;;;3.28;1.20;;;15.50;91.70;;;;;;5094584;28;20048;-71
2022/05/30 12:35:00;;;;;;;2.35;1.10;;;15.20;93.40;;;;;;5093561;28;20391;-74
2022/05/30 12:37:44;;;;;;;3.15;1.10;;;15.10;94.70;;;;;;5093922;28;20430;-72
2022/05/30 12:40:26;;;;;;;2.00;1.10;;;15.00;94.60;;;;;;5093553;28;20085;-74
2022/05/30 12:43:14;;;;;;;3.95;1.35;;;14.80;95.20;;;;;;5093565;28;20492;-72
2022/05/30 12:45:50;;;;;;;4.85;1.83;;;14.90;96.30;;;;;;5093638;28;20144;-71
2022/05/30 12:48:27;;;;;;;3.03;1.20;;;14.90;97.50;;;;;;5094336;28;20046;-72
2022/05/30 12:50:54;;;;;;;2.97;1.25;;;14.80;98.20;;;;;;5094649;28;20379;-70
2022/05/30 12:53:23;;;;;;;4.93;1.27;;;14.80;99.20;;;;;;5093465;28;20044;-71
2022/05/30 12:55:52;;;;;;;2.35;1.20;;;14.80;99.90;;;;;;5075741;28;20474;-71
2022/05/30 12:58:42;;;;;;;2.08;1.40;;;14.70;99.90;;;;;;5093255;28;20040;-70
2022/05/30 13:01:19;;;;;;;3.55;1.67;;;14.70;99.90;;;;;;5083121;28;20048;-70
2022/05/30 13:03:56;;;;;;;4.93;1.73;;;14.70;99.90;;;;;;5061293;28;20051;-71
2022/05/30 13:06:23;;;;;;;3.97;1.40;;;14.60;99.90;;;;;;5077092;28;20411;-72
2022/05/30 13:08:59;;;;;;;2.28;1.20;;;14.60;99.90;;;;;;5092436;28;20445;-72
2022/05/30 13:12:00;;;;;;;2.35;1.50;;;14.50;99.90;;;;;;5094160;28;20402;-72
2022/05/30 13:14:49;;;;;;;4.57;1.58;;;14.50;99.90;;;;;;5094431;28;20351;-72
2022/05/30 13:17:18;;;;;;;2.83;1.40;;;14.50;99.90;;;;;;5097409;28;20436;-71
2022/05/30 13:20:13;;;;;;;4.00;1.55;;;14.50;99.90;;;;;;5096207;28;20040;-70
2022/05/30 13:22:51;;;;;;;2.60;1.65;;;14.50;99.90;;;;;;5094443;28;20058;-70
2022/05/30 13:25:19;;;;;;;3.83;1.80;;;14.50;99.90;;;;;;5096109;28;20044;-75
2022/05/30 13:27:47;;;;;;;4.32;2.10;;;14.60;99.90;;;;;;5097147;28;20093;-73
2022/05/30 13:30:20;;;;;;;3.03;1.88;;;14.60;99.90;;;;;;5080373;28;20112;-73
2022/05/30 13:32:49;;;;;;;5.50;2.00;;;14.50;99.90;;;;;;5098070;28;20044;-67
2022/05/30 13:35:16;;;;;;;3.13;2.17;;;14.50;99.90;;;;;;5079978;28;20044;-67
2022/05/30 13:37:45;;;;;;;5.18;2.10;;;14.60;99.90;;;;;;5096059;28;20040;-68
2022/05/30 13:40:16;;;;;;;;;;;14.60;99.90;;;;;;5063906;28;20052;-69